createdAt,value
2022-08-31T00:03:12.558Z,101305.13
2022-08-31T00:06:15.783Z,101299.91
2022-08-31T00:09:17.756Z,101292.06
2022-08-31T00:12:19.757Z,101296.59
2022-08-31T00:15:25.383Z,101292.34
2022-08-31T00:18:27.727Z,101295.91
2022-08-31T00:21:29.676Z,101303.06
2022-08-31T00:24:32.187Z,101299.50
2022-08-31T00:27:34.114Z,101297.00
2022-08-31T00:30:36.213Z,101297.00
2022-08-31T00:33:38.054Z,101284.91
2022-08-31T00:36:40.153Z,101284.91
2022-08-31T00:39:42.168Z,101292.91
2022-08-31T00:42:44.101Z,101278.31
2022-08-31T00:45:45.890Z,101279.81
2022-08-31T00:49:05.339Z,101284.53
2022-08-31T00:52:24.555Z,101281.09
2022-08-31T00:55:35.375Z,101276.13
2022-08-31T00:58:37.533Z,101275.44
2022-08-31T01:01:39.243Z,101276.41
2022-08-31T01:04:41.146Z,101274.91
2022-08-31T01:07:47.748Z,101267.88
2022-08-31T01:10:49.599Z,101274.78
2022-08-31T01:13:56.771Z,101276.16
2022-08-31T01:16:58.636Z,101277.41
2022-08-31T01:20:35.881Z,101279.22
2022-08-31T01:23:42.809Z,101280.84
2022-08-31T01:26:44.845Z,101285.66
2022-08-31T01:30:10.391Z,101280.03
2022-08-31T01:33:13.511Z,101280.31
2022-08-31T01:36:16.422Z,101282.25
2022-08-31T01:39:19.171Z,101285.28
2022-08-31T01:42:21.132Z,101279.25
2022-08-31T01:45:23.045Z,101282.25
2022-08-31T01:48:25.004Z,101286.25
2022-08-31T01:51:27.000Z,101289.97
2022-08-31T01:54:28.736Z,101284.47
2022-08-31T01:57:33.587Z,101286.78
2022-08-31T02:00:54.407Z,101288.31
2022-08-31T02:03:57.239Z,101291.31
2022-08-31T02:07:01.336Z,101290.91
2022-08-31T02:10:04.445Z,101283.63
2022-08-31T02:13:06.467Z,101290.31
2022-08-31T02:16:11.543Z,101290.88
2022-08-31T02:19:14.300Z,101292.63
2022-08-31T02:22:16.252Z,101292.19
2022-08-31T02:25:18.761Z,101295.09
2022-08-31T02:28:21.486Z,101303.59
2022-08-31T02:31:23.464Z,101297.03
2022-08-31T02:34:31.341Z,101296.34
2022-08-31T02:37:33.154Z,101295.94
2022-08-31T02:40:38.944Z,101295.41
2022-08-31T02:43:43.376Z,101306.16
2022-08-31T02:46:46.064Z,101302.59
2022-08-31T02:50:14.169Z,101304.94
2022-08-31T02:53:17.345Z,101309.19
2022-08-31T02:56:19.351Z,101301.78
2022-08-31T02:59:21.233Z,101298.72
2022-08-31T03:02:24.263Z,101301.97
2022-08-31T03:05:33.925Z,101293.72
2022-08-31T03:08:35.725Z,101287.81
2022-08-31T03:11:37.806Z,101288.06
2022-08-31T03:14:39.760Z,101284.81
2022-08-31T03:17:42.444Z,101285.06
2022-08-31T03:20:45.256Z,101282.53
2022-08-31T03:23:47.431Z,101280.72
2022-08-31T03:26:50.131Z,101281.50
2022-08-31T03:29:53.279Z,101271.34
2022-08-31T03:33:02.319Z,101279.25
2022-08-31T03:36:05.908Z,101275.53
2022-08-31T03:39:07.746Z,101278.75
2022-08-31T03:42:09.662Z,101278.56
2022-08-31T03:45:13.326Z,101273.41
2022-08-31T03:48:16.791Z,101281.84
2022-08-31T03:51:20.411Z,101285.09
2022-08-31T03:54:22.870Z,101286.53
2022-08-31T03:57:24.680Z,101286.06
2022-08-31T04:00:28.503Z,101282.09
2022-08-31T04:03:36.162Z,101279.16
2022-08-31T04:07:06.935Z,101280.13
2022-08-31T04:10:28.790Z,101291.09
2022-08-31T04:13:49.873Z,101292.72
2022-08-31T04:17:11.504Z,101302.47
2022-08-31T04:20:19.555Z,101307.66
2022-08-31T04:23:31.786Z,101309.66
2022-08-31T04:26:37.550Z,101307.94
2022-08-31T04:29:44.441Z,101306.34
2022-08-31T04:32:46.251Z,101311.19
2022-08-31T04:35:48.663Z,101316.75
2022-08-31T04:38:53.202Z,101320.34
2022-08-31T04:41:55.756Z,101318.63
2022-08-31T04:44:58.385Z,101324.91
2022-08-31T04:48:00.337Z,101327.84
2022-08-31T04:51:04.455Z,101332.41
2022-08-31T04:54:10.055Z,101328.56
2022-08-31T04:57:12.059Z,101339.88
2022-08-31T05:00:14.770Z,101327.97
2022-08-31T05:03:51.121Z,101326.78
2022-08-31T05:06:54.704Z,101335.72
2022-08-31T05:09:56.781Z,101332.47
2022-08-31T05:12:58.531Z,101335.63
2022-08-31T05:16:01.590Z,101338.00
2022-08-31T05:19:03.462Z,101337.47
2022-08-31T05:22:05.414Z,101334.88
2022-08-31T05:25:10.376Z,101338.50
2022-08-31T05:28:12.428Z,101337.13
2022-08-31T05:31:15.239Z,101343.59
2022-08-31T05:34:21.772Z,101348.00
2022-08-31T05:37:24.401Z,101359.09
2022-08-31T05:40:28.235Z,101351.38
2022-08-31T05:43:31.112Z,101358.28
2022-08-31T05:46:33.683Z,101358.13
2022-08-31T05:49:37.081Z,101365.56
2022-08-31T05:52:38.892Z,101368.19
2022-08-31T05:55:40.669Z,101369.19
2022-08-31T05:58:44.480Z,101370.31
2022-08-31T06:01:48.757Z,101371.44
2022-08-31T06:04:58.183Z,101378.47
2022-08-31T06:08:00.348Z,101378.88
2022-08-31T06:11:04.081Z,101379.19
2022-08-31T06:14:06.765Z,101379.84
2022-08-31T06:17:09.148Z,101390.59
2022-08-31T06:20:16.909Z,101385.38
2022-08-31T06:23:20.871Z,101388.41
2022-08-31T06:26:27.405Z,101383.03
2022-08-31T06:29:32.920Z,101392.91
2022-08-31T06:32:36.413Z,101394.16
2022-08-31T06:35:40.258Z,101399.34
2022-08-31T06:39:12.403Z,101395.28
2022-08-31T06:42:23.091Z,101393.84
2022-08-31T06:45:43.539Z,101399.34
2022-08-31T06:49:05.159Z,101395.59
2022-08-31T06:52:10.699Z,101393.13
2022-08-31T06:55:13.981Z,101395.63
2022-08-31T06:58:24.941Z,101401.06
2022-08-31T07:01:45.088Z,101396.00
2022-08-31T07:04:54.526Z,101396.16
2022-08-31T07:07:56.431Z,101396.06
2022-08-31T07:10:58.205Z,101405.59
2022-08-31T07:14:01.092Z,101409.84
2022-08-31T07:17:05.118Z,101405.16
2022-08-31T07:20:08.876Z,101405.59
2022-08-31T07:23:11.071Z,101411.09
2022-08-31T07:26:36.316Z,101412.59
2022-08-31T07:29:40.760Z,101402.69
2022-08-31T07:32:46.073Z,101405.84
2022-08-31T07:35:51.905Z,101399.97
2022-08-31T07:39:16.245Z,101403.91
2022-08-31T07:42:28.759Z,101403.47
2022-08-31T07:45:34.438Z,101409.47
2022-08-31T07:48:39.709Z,101406.53
2022-08-31T07:52:00.591Z,101406.19
2022-08-31T07:55:36.085Z,101409.63
2022-08-31T07:58:43.053Z,101407.09
2022-08-31T08:01:56.118Z,101411.59
2022-08-31T08:05:00.930Z,101425.63
2022-08-31T08:08:23.094Z,101414.41
2022-08-31T08:12:01.215Z,101419.47
2022-08-31T08:15:21.512Z,101423.97
2022-08-31T08:18:42.161Z,101428.06
2022-08-31T08:21:46.219Z,101424.63
2022-08-31T08:24:49.252Z,101433.00
2022-08-31T08:28:22.597Z,101426.59
2022-08-31T08:31:28.836Z,101432.50
2022-08-31T08:34:32.819Z,101431.00
2022-08-31T08:37:57.065Z,101434.19
2022-08-31T08:41:04.768Z,101428.22
2022-08-31T08:44:10.494Z,101432.88
2022-08-31T08:47:23.907Z,101441.25
2022-08-31T08:50:31.823Z,101440.63
2022-08-31T08:53:33.939Z,101435.44
2022-08-31T08:56:57.897Z,101431.38
2022-08-31T09:00:07.949Z,101437.03
2022-08-31T09:03:30.803Z,101428.28
2022-08-31T09:06:54.646Z,101429.06
2022-08-31T09:10:16.754Z,101434.25
2022-08-31T09:13:49.105Z,101436.34
2022-08-31T09:17:17.021Z,101440.47
2022-08-31T09:20:19.034Z,101438.97
2022-08-31T09:23:21.998Z,101440.63
2022-08-31T09:26:26.098Z,101441.13
2022-08-31T09:29:44.067Z,101433.31
2022-08-31T09:32:57.043Z,101437.50
2022-08-31T09:36:27.478Z,101436.41
2022-08-31T09:39:33.118Z,101431.19
2022-08-31T09:42:39.270Z,101435.16
2022-08-31T09:46:07.646Z,101430.91
2022-08-31T09:49:19.383Z,101436.19
2022-08-31T09:52:46.327Z,101434.56
2022-08-31T09:55:50.305Z,101425.22
2022-08-31T09:58:57.414Z,101430.91
2022-08-31T10:02:01.377Z,101434.22
2022-08-31T10:05:29.700Z,101431.13
2022-08-31T10:08:57.004Z,101434.44
2022-08-31T10:12:04.153Z,101430.19
2022-08-31T10:15:15.294Z,101432.19
2022-08-31T10:18:27.894Z,101429.22
2022-08-31T10:22:22.081Z,101422.28
2022-08-31T10:25:52.668Z,101417.47
2022-08-31T10:28:59.181Z,101422.72
2022-08-31T10:32:09.311Z,101420.56
2022-08-31T10:35:19.570Z,101419.41
2022-08-31T10:38:43.705Z,101411.97
2022-08-31T10:41:49.438Z,101406.03
2022-08-31T10:45:04.437Z,101409.56
2022-08-31T10:48:06.958Z,101404.59
2022-08-31T10:51:23.439Z,101413.03
2022-08-31T10:54:56.656Z,101413.63
2022-08-31T10:58:36.629Z,101400.81
2022-08-31T11:01:48.272Z,101402.78
2022-08-31T11:05:10.931Z,101398.81
2022-08-31T11:08:31.322Z,101390.03
2022-08-31T11:11:43.531Z,101390.03
2022-08-31T11:15:22.433Z,101389.91
2022-08-31T11:18:59.896Z,101390.56
2022-08-31T11:22:34.642Z,101382.78
2022-08-31T11:26:03.311Z,101379.06
2022-08-31T11:29:13.395Z,101377.69
2022-08-31T11:32:21.700Z,101378.81
2022-08-31T11:36:04.037Z,101378.53
2022-08-31T11:39:08.239Z,101368.50
2022-08-31T11:42:19.124Z,101362.03
2022-08-31T11:45:33.038Z,101358.34
2022-08-31T11:48:54.551Z,101360.81
2022-08-31T11:51:57.235Z,101354.22
2022-08-31T11:55:21.030Z,101345.28
2022-08-31T11:58:33.782Z,101341.63
2022-08-31T12:01:36.295Z,101352.84
2022-08-31T12:04:58.799Z,101346.44
2022-08-31T12:08:04.327Z,101339.91
2022-08-31T12:11:18.136Z,101342.25
2022-08-31T12:14:41.894Z,101339.00
2022-08-31T12:18:27.568Z,101345.59
2022-08-31T12:22:10.134Z,101344.94
2022-08-31T12:25:36.976Z,101335.22
2022-08-31T12:29:16.276Z,101326.88
2022-08-31T12:32:36.220Z,101324.88
2022-08-31T12:35:38.521Z,101325.75
2022-08-31T12:38:40.692Z,101323.50
2022-08-31T12:41:51.733Z,101317.06
2022-08-31T12:44:54.947Z,101318.75
2022-08-31T12:48:15.533Z,101320.25
2022-08-31T12:51:35.913Z,101318.66
2022-08-31T12:54:49.939Z,101319.50
2022-08-31T12:58:10.359Z,101311.56
2022-08-31T13:01:15.452Z,101308.06
2022-08-31T13:04:19.811Z,101301.09
2022-08-31T13:07:30.455Z,101300.88
2022-08-31T13:10:36.182Z,101302.00
2022-08-31T13:13:38.110Z,101311.56
2022-08-31T13:16:54.555Z,101308.06
2022-08-31T13:20:03.189Z,101292.09
2022-08-31T13:23:10.355Z,101298.06
2022-08-31T13:26:20.022Z,101290.47
2022-08-31T13:29:24.135Z,101292.94
2022-08-31T13:32:33.707Z,101289.28
2022-08-31T13:35:39.760Z,101284.78
2022-08-31T13:38:50.910Z,101274.69
2022-08-31T13:42:21.144Z,101282.75
2022-08-31T13:45:27.551Z,101278.34
2022-08-31T13:48:30.974Z,101277.91
2022-08-31T13:51:38.812Z,101274.97
2022-08-31T13:54:40.921Z,101278.16
2022-08-31T13:57:59.895Z,101275.75
2022-08-31T14:01:26.438Z,101276.59
2022-08-31T14:04:44.136Z,101273.56
2022-08-31T14:07:46.983Z,101270.13
2022-08-31T14:10:49.815Z,101265.59
2022-08-31T14:13:52.747Z,101268.84
2022-08-31T14:17:03.386Z,101270.00
2022-08-31T14:20:49.640Z,101264.44
2022-08-31T14:24:07.227Z,101254.00
2022-08-31T14:27:11.109Z,101256.25
2022-08-31T14:30:14.484Z,101252.50
2022-08-31T14:33:17.007Z,101255.28
2022-08-31T14:36:19.697Z,101252.56
2022-08-31T14:39:22.187Z,101256.91
2022-08-31T14:42:28.733Z,101251.50
2022-08-31T14:45:30.541Z,101252.34
2022-08-31T14:48:34.034Z,101242.91
2022-08-31T14:51:38.563Z,101247.16
2022-08-31T14:54:41.163Z,101243.16
2022-08-31T14:57:45.731Z,101238.53
2022-08-31T15:00:53.256Z,101229.22
2022-08-31T15:03:56.112Z,101242.88
2022-08-31T15:07:09.704Z,101246.47
2022-08-31T15:10:13.162Z,101241.56
2022-08-31T15:13:16.766Z,101241.56
2022-08-31T15:16:18.377Z,101236.81
2022-08-31T15:19:23.470Z,101231.66
2022-08-31T15:22:26.361Z,101233.84
2022-08-31T15:25:28.735Z,101227.81
2022-08-31T15:28:33.617Z,101233.41
2022-08-31T15:31:35.507Z,101233.69
2022-08-31T15:34:38.574Z,101230.63
2022-08-31T15:37:41.255Z,101232.09
2022-08-31T15:40:43.066Z,101224.25
2022-08-31T15:43:45.020Z,101223.25
2022-08-31T15:47:06.605Z,101218.19
2022-08-31T15:50:09.483Z,101216.69
2022-08-31T15:53:13.589Z,101222.00
2022-08-31T15:56:16.163Z,101217.72
2022-08-31T15:59:18.018Z,101213.56
2022-08-31T16:02:20.612Z,101213.13
2022-08-31T16:05:24.418Z,101212.00
2022-08-31T16:08:27.611Z,101210.41
2022-08-31T16:11:36.833Z,101205.94
2022-08-31T16:14:41.591Z,101200.19
2022-08-31T16:17:44.315Z,101199.88
2022-08-31T16:20:48.258Z,101201.06
2022-08-31T16:23:55.110Z,101206.13
2022-08-31T16:26:59.041Z,101192.34
2022-08-31T16:30:01.217Z,101196.75
2022-08-31T16:33:03.132Z,101190.00
2022-08-31T16:36:06.618Z,101186.56
2022-08-31T16:39:08.987Z,101190.31
2022-08-31T16:42:13.358Z,101187.94
2022-08-31T16:45:15.554Z,101193.16
2022-08-31T16:48:36.445Z,101194.38
2022-08-31T16:51:39.031Z,101197.69
2022-08-31T16:54:42.969Z,101194.94
2022-08-31T16:57:45.615Z,101203.72
2022-08-31T17:00:47.747Z,101199.81
2022-08-31T17:03:52.736Z,101199.00
2022-08-31T17:06:55.350Z,101201.16
2022-08-31T17:10:03.950Z,101195.47
2022-08-31T17:13:07.473Z,101194.03
2022-08-31T17:16:10.132Z,101193.41
2022-08-31T17:19:14.282Z,101196.22
2022-08-31T17:22:25.800Z,101194.72
2022-08-31T17:25:33.938Z,101204.47
2022-08-31T17:28:37.849Z,101203.72
2022-08-31T17:31:43.596Z,101209.09
2022-08-31T17:34:51.823Z,101205.69
2022-08-31T17:37:54.287Z,101204.91
2022-08-31T17:41:05.478Z,101211.22
2022-08-31T17:44:09.521Z,101214.69
2022-08-31T17:47:11.827Z,101219.72
2022-08-31T17:50:17.405Z,101215.34
2022-08-31T17:53:19.377Z,101219.81
2022-08-31T17:56:24.983Z,101218.13
2022-08-31T17:59:37.001Z,101217.75
2022-08-31T18:02:39.315Z,101214.63
2022-08-31T18:05:48.333Z,101221.03
2022-08-31T18:08:50.533Z,101228.31
2022-08-31T18:11:53.569Z,101218.84
2022-08-31T18:14:58.137Z,101222.84
2022-08-31T18:18:01.314Z,101230.38
2022-08-31T18:21:09.776Z,101233.28
2022-08-31T18:24:14.240Z,101233.28
2022-08-31T18:27:17.869Z,101238.50
2022-08-31T18:30:20.806Z,101236.66
2022-08-31T18:33:24.804Z,101242.66
2022-08-31T18:36:27.412Z,101245.56
2022-08-31T18:39:51.126Z,101247.63
2022-08-31T18:43:14.733Z,101249.19
2022-08-31T18:46:16.688Z,101249.75
2022-08-31T18:49:22.151Z,101257.06
2022-08-31T18:52:26.710Z,101248.31
2022-08-31T18:55:29.126Z,101250.06
2022-08-31T18:58:31.485Z,101248.03
2022-08-31T19:01:34.683Z,101247.97
2022-08-31T19:04:37.954Z,101251.19
2022-08-31T19:07:41.399Z,101258.00
2022-08-31T19:10:43.500Z,101246.47
2022-08-31T19:13:46.752Z,101258.34
2022-08-31T19:16:55.104Z,101254.53
2022-08-31T19:20:04.251Z,101256.13
2022-08-31T19:23:06.202Z,101256.72
2022-08-31T19:26:08.578Z,101252.75
2022-08-31T19:29:14.803Z,101261.84
2022-08-31T19:32:16.984Z,101257.91
2022-08-31T19:35:19.882Z,101261.78
2022-08-31T19:38:24.301Z,101263.19
2022-08-31T19:41:28.817Z,101271.34
2022-08-31T19:48:01.371Z,101272.06
2022-08-31T19:51:08.757Z,101266.16
2022-08-31T19:54:12.352Z,101265.47
2022-08-31T19:57:14.622Z,101277.06
2022-08-31T20:00:17.141Z,101273.22
2022-08-31T20:03:19.605Z,101273.81
2022-08-31T20:06:23.878Z,101281.41
2022-08-31T20:09:27.227Z,101275.34
2022-08-31T20:12:30.439Z,101270.41
2022-08-31T20:15:32.571Z,101273.47
2022-08-31T20:18:37.512Z,101269.63
2022-08-31T20:21:42.125Z,101275.13
2022-08-31T20:24:45.035Z,101265.78
2022-08-31T20:27:47.274Z,101278.28
2022-08-31T20:30:59.410Z,101272.66
2022-08-31T20:34:01.535Z,101267.56
2022-08-31T20:37:04.138Z,101271.28
2022-08-31T20:40:10.462Z,101272.69
2022-08-31T20:43:13.679Z,101273.94
2022-08-31T20:46:34.601Z,101269.16
2022-08-31T20:49:53.703Z,101275.06
2022-08-31T20:52:57.073Z,101284.16
2022-08-31T20:55:58.706Z,101280.88
2022-08-31T20:59:01.758Z,101279.63
2022-08-31T21:02:05.995Z,101280.19
2022-08-31T21:05:37.154Z,101283.38
2022-08-31T21:08:31.998Z,101282.97
2022-08-31T21:11:41.092Z,101278.84
2022-08-31T21:14:45.555Z,101286.94
2022-08-31T21:17:48.260Z,101280.47
2022-08-31T21:20:51.558Z,101288.88
2022-08-31T21:23:53.450Z,101285.84
2022-08-31T21:26:59.557Z,101283.66
2022-08-31T21:30:04.802Z,101295.59
2022-08-31T21:33:06.575Z,101297.91
2022-08-31T21:36:11.371Z,101280.28
2022-08-31T21:39:16.204Z,101294.59
2022-08-31T21:42:18.463Z,101288.78
2022-08-31T21:45:20.762Z,101291.81
2022-08-31T21:48:26.124Z,101303.22
2022-08-31T21:51:30.786Z,101296.47
2022-08-31T21:54:32.878Z,101302.91
2022-08-31T21:57:34.816Z,101299.59
2022-08-31T22:00:41.915Z,101308.53
2022-08-31T22:03:45.490Z,101306.06
2022-08-31T22:06:49.651Z,101313.72
2022-08-31T22:09:51.494Z,101311.38
2022-08-31T22:12:53.087Z,101314.25
2022-08-31T22:15:57.159Z,101315.34
2022-08-31T22:19:02.005Z,101317.38
2022-08-31T22:22:07.991Z,101324.53
2022-08-31T22:25:10.875Z,101329.03
2022-08-31T22:28:13.125Z,101318.59
2022-08-31T22:31:17.508Z,101321.50
2022-08-31T22:34:21.017Z,101322.56
2022-08-31T22:37:22.723Z,101319.38
2022-08-31T22:40:24.425Z,101330.19
2022-08-31T22:43:26.325Z,101331.56
2022-08-31T22:46:28.623Z,101330.28
2022-08-31T22:49:31.040Z,101331.22
2022-08-31T22:52:33.547Z,101334.94
2022-08-31T22:55:39.215Z,101331.50
2022-08-31T22:58:41.404Z,101330.78
2022-08-31T23:01:47.919Z,101333.78
2022-08-31T23:04:50.098Z,101332.25
2022-08-31T23:07:52.114Z,101335.41
2022-08-31T23:10:54.474Z,101331.53
2022-08-31T23:13:58.843Z,101334.75
2022-08-31T23:17:04.154Z,101324.81
2022-08-31T23:20:07.565Z,101330.53
2022-08-31T23:23:10.206Z,101323.22
2022-08-31T23:26:12.557Z,101328.09
2022-08-31T23:29:18.132Z,101329.56
2022-08-31T23:32:21.818Z,101330.75
2022-08-31T23:35:24.507Z,101314.81
2022-08-31T23:38:28.156Z,101322.03
2022-08-31T23:41:31.794Z,101315.44
2022-08-31T23:44:46.638Z,101322.78
2022-08-31T23:47:48.754Z,101323.16
2022-08-31T23:50:54.687Z,101314.88
2022-08-31T23:53:57.227Z,101322.22
2022-08-31T23:56:58.850Z,101326.88
